sensor_id;sensor_type;location;lat;lon;timestamp;P1;durP1;ratioP1;P2;durP2;ratioP2
14688;SDS011;7432;48.728;9.154;2024-01-10T00:00:30;17.20;;;12.63;;
14688;SDS011;7432;48.728;9.154;2024-01-10T00:02:56;16.77;;;11.73;;
14688;SDS011;7432;48.728;9.154;2024-01-10T00:05:22;15.97;;;13.17;;
14688;SDS011;7432;48.728;9.154;2024-01-10T00:07:49;17.03;;;13.43;;
14688;SDS011;7432;48.728;9.154;2024-01-10T00:10:15;15.57;;;13.23;;
14688;SDS011;7432;48.728;9.154;2024-01-10T00:12:43;15.33;;;12.33;;
14688;SDS011;7432;48.728;9.154;2024-01-10T00:15:09;18.00;;;14.07;;
14688;SDS011;7432;48.728;9.154;2024-01-10T00:17:36;18.37;;;12.97;;
14688;SDS011;7432;48.728;9.154;2024-01-10T00:20:02;18.23;;;12.83;;
14688;SDS011;7432;48.728;9.154;2024-01-10T00:22:29;20.98;;;15.77;;
14688;SDS011;7432;48.728;9.154;2024-01-10T00:24:55;17.00;;;13.23;;
14688;SDS011;7432;48.728;9.154;2024-01-10T00:27:22;18.40;;;13.17;;
14688;SDS011;7432;48.728;9.154;2024-01-10T00:29:49;19.07;;;13.70;;
14688;SDS011;7432;48.728;9.154;2024-01-10T00:32:16;15.13;;;12.40;;
14688;SDS011;7432;48.728;9.154;2024-01-10T00:34:43;18.73;;;14.13;;
14688;SDS011;7432;48.728;9.154;2024-01-10T00:37:09;18.00;;;12.73;;
14688;SDS011;7432;48.728;9.154;2024-01-10T00:39:36;19.10;;;13.60;;
14688;SDS011;7432;48.728;9.154;2024-01-10T00:42:02;16.30;;;12.87;;
14688;SDS011;7432;48.728;9.154;2024-01-10T00:44:29;17.13;;;13.17;;
14688;SDS011;7432;48.728;9.154;2024-01-10T00:46:56;16.97;;;13.70;;
14688;SDS011;7432;48.728;9.154;2024-01-10T00:49:23;19.20;;;13.77;;
14688;SDS011;7432;48.728;9.154;2024-01-10T00:51:49;22.93;;;14.23;;
14688;SDS011;7432;48.728;9.154;2024-01-10T00:54:16;23.73;;;14.63;;
14688;SDS011;7432;48.728;9.154;2024-01-10T00:56:42;16.23;;;13.53;;
14688;SDS011;7432;48.728;9.154;2024-01-10T00:59:09;19.27;;;14.30;;
14688;SDS011;7432;48.728;9.154;2024-01-10T01:01:35;20.60;;;12.87;;
14688;SDS011;7432;48.728;9.154;2024-01-10T01:04:03;20.93;;;14.07;;
14688;SDS011;7432;48.728;9.154;2024-01-10T01:06:29;19.90;;;14.23;;
14688;SDS011;7432;48.728;9.154;2024-01-10T01:08:56;17.57;;;13.37;;
14688;SDS011;7432;48.728;9.154;2024-01-10T01:11:23;19.53;;;13.73;;
14688;SDS011;7432;48.728;9.154;2024-01-10T01:13:50;19.07;;;14.00;;
14688;SDS011;7432;48.728;9.154;2024-01-10T01:16:16;16.73;;;13.27;;
14688;SDS011;7432;48.728;9.154;2024-01-10T01:18:42;19.23;;;14.30;;
14688;SDS011;7432;48.728;9.154;2024-01-10T01:21:11;17.60;;;13.10;;
14688;SDS011;7432;48.728;9.154;2024-01-10T01:23:38;18.23;;;13.57;;
14688;SDS011;7432;48.728;9.154;2024-01-10T01:26:04;16.63;;;14.17;;
14688;SDS011;7432;48.728;9.154;2024-01-10T01:28:30;22.40;;;15.57;;
14688;SDS011;7432;48.728;9.154;2024-01-10T01:30:57;21.07;;;14.80;;
14688;SDS011;7432;48.728;9.154;2024-01-10T01:33:24;18.23;;;14.93;;
14688;SDS011;7432;48.728;9.154;2024-01-10T01:35:50;18.70;;;14.73;;
14688;SDS011;7432;48.728;9.154;2024-01-10T01:38:19;22.27;;;15.50;;
14688;SDS011;7432;48.728;9.154;2024-01-10T01:40:45;18.97;;;14.17;;
14688;SDS011;7432;48.728;9.154;2024-01-10T01:43:18;20.87;;;14.37;;
14688;SDS011;7432;48.728;9.154;2024-01-10T01:45:45;19.67;;;14.67;;
14688;SDS011;7432;48.728;9.154;2024-01-10T01:48:12;20.87;;;14.97;;
14688;SDS011;7432;48.728;9.154;2024-01-10T01:50:39;18.97;;;15.23;;
14688;SDS011;7432;48.728;9.154;2024-01-10T01:53:06;18.93;;;14.83;;
14688;SDS011;7432;48.728;9.154;2024-01-10T01:55:34;20.03;;;14.90;;
14688;SDS011;7432;48.728;9.154;2024-01-10T01:58:00;18.57;;;14.00;;
14688;SDS011;7432;48.728;9.154;2024-01-10T02:00:27;19.60;;;14.10;;
14688;SDS011;7432;48.728;9.154;2024-01-10T02:02:53;20.53;;;15.57;;
14688;SDS011;7432;48.728;9.154;2024-01-10T02:05:21;19.73;;;14.60;;
14688;SDS011;7432;48.728;9.154;2024-01-10T02:07:47;20.90;;;14.30;;
14688;SDS011;7432;48.728;9.154;2024-01-10T02:10:13;20.17;;;14.43;;
14688;SDS011;7432;48.728;9.154;2024-01-10T02:12:41;16.83;;;13.50;;
14688;SDS011;7432;48.728;9.154;2024-01-10T02:15:08;19.97;;;14.80;;
14688;SDS011;7432;48.728;9.154;2024-01-10T02:17:34;20.00;;;14.80;;
14688;SDS011;7432;48.728;9.154;2024-01-10T02:20:07;18.40;;;13.93;;
14688;SDS011;7432;48.728;9.154;2024-01-10T02:22:34;18.80;;;14.73;;
14688;SDS011;7432;48.728;9.154;2024-01-10T02:25:02;18.60;;;14.00;;
14688;SDS011;7432;48.728;9.154;2024-01-10T02:27:29;18.40;;;14.27;;
14688;SDS011;7432;48.728;9.154;2024-01-10T02:29:55;18.10;;;14.03;;
14688;SDS011;7432;48.728;9.154;2024-01-10T02:32:22;18.43;;;14.17;;
14688;SDS011;7432;48.728;9.154;2024-01-10T02:34:49;18.80;;;14.67;;
14688;SDS011;7432;48.728;9.154;2024-01-10T02:37:16;18.03;;;14.20;;
14688;SDS011;7432;48.728;9.154;2024-01-10T02:39:42;18.47;;;14.40;;
14688;SDS011;7432;48.728;9.154;2024-01-10T02:42:10;19.83;;;14.03;;
14688;SDS011;7432;48.728;9.154;2024-01-10T02:44:36;19.87;;;13.77;;
14688;SDS011;7432;48.728;9.154;2024-01-10T02:47:03;18.00;;;15.03;;
14688;SDS011;7432;48.728;9.154;2024-01-10T02:49:30;19.60;;;14.73;;
14688;SDS011;7432;48.728;9.154;2024-01-10T02:51:56;21.47;;;15.07;;
14688;SDS011;7432;48.728;9.154;2024-01-10T02:54:22;20.57;;;15.27;;
14688;SDS011;7432;48.728;9.154;2024-01-10T02:56:48;19.43;;;15.47;;
14688;SDS011;7432;48.728;9.154;2024-01-10T02:59:16;20.93;;;14.93;;
14688;SDS011;7432;48.728;9.154;2024-01-10T03:01:43;18.37;;;14.10;;
14688;SDS011;7432;48.728;9.154;2024-01-10T03:04:09;18.53;;;13.53;;
14688;SDS011;7432;48.728;9.154;2024-01-10T03:06:35;17.50;;;14.50;;
14688;SDS011;7432;48.728;9.154;2024-01-10T03:09:02;18.93;;;13.73;;
14688;SDS011;7432;48.728;9.154;2024-01-10T03:11:28;19.03;;;14.07;;
14688;SDS011;7432;48.728;9.154;2024-01-10T03:14:00;20.87;;;14.40;;
14688;SDS011;7432;48.728;9.154;2024-01-10T03:16:29;18.67;;;14.27;;
14688;SDS011;7432;48.728;9.154;2024-01-10T03:18:56;19.30;;;14.33;;
14688;SDS011;7432;48.728;9.154;2024-01-10T03:21:22;17.27;;;14.30;;
14688;SDS011;7432;48.728;9.154;2024-01-10T03:23:49;18.47;;;14.23;;
14688;SDS011;7432;48.728;9.154;2024-01-10T03:26:16;20.40;;;14.23;;
14688;SDS011;7432;48.728;9.154;2024-01-10T03:28:42;19.33;;;13.77;;
14688;SDS011;7432;48.728;9.154;2024-01-10T03:31:10;18.37;;;14.53;;
14688;SDS011;7432;48.728;9.154;2024-01-10T03:33:38;19.27;;;14.23;;
14688;SDS011;7432;48.728;9.154;2024-01-10T03:36:05;19.00;;;14.67;;
14688;SDS011;7432;48.728;9.154;2024-01-10T03:38:32;18.37;;;14.97;;
14688;SDS011;7432;48.728;9.154;2024-01-10T03:40:59;19.70;;;15.30;;
14688;SDS011;7432;48.728;9.154;2024-01-10T03:43:25;19.20;;;14.77;;
14688;SDS011;7432;48.728;9.154;2024-01-10T03:45:51;20.70;;;14.97;;
14688;SDS011;7432;48.728;9.154;2024-01-10T03:48:18;21.17;;;13.83;;
14688;SDS011;7432;48.728;9.154;2024-01-10T03:50:46;21.47;;;13.93;;
14688;SDS011;7432;48.728;9.154;2024-01-10T03:53:12;18.57;;;13.10;;
14688;SDS011;7432;48.728;9.154;2024-01-10T03:55:39;20.43;;;14.47;;
14688;SDS011;7432;48.728;9.154;2024-01-10T03:58:05;19.00;;;14.27;;
14688;SDS011;7432;48.728;9.154;2024-01-10T04:00:31;21.37;;;14.50;;
14688;SDS011;7432;48.728;9.154;2024-01-10T04:02:58;20.03;;;15.17;;
14688;SDS011;7432;48.728;9.154;2024-01-10T04:05:24;18.60;;;14.50;;
14688;SDS011;7432;48.728;9.154;2024-01-10T04:07:52;21.87;;;15.37;;
14688;SDS011;7432;48.728;9.154;2024-01-10T04:10:18;22.97;;;16.03;;
14688;SDS011;7432;48.728;9.154;2024-01-10T04:12:46;19.23;;;14.63;;
14688;SDS011;7432;48.728;9.154;2024-01-10T04:15:12;19.67;;;15.13;;
14688;SDS011;7432;48.728;9.154;2024-01-10T04:17:38;20.30;;;14.47;;
14688;SDS011;7432;48.728;9.154;2024-01-10T04:20:05;18.67;;;13.30;;
14688;SDS011;7432;48.728;9.154;2024-01-10T04:22:33;19.10;;;14.20;;
14688;SDS011;7432;48.728;9.154;2024-01-10T04:25:01;24.37;;;15.07;;
14688;SDS011;7432;48.728;9.154;2024-01-10T04:27:28;20.13;;;14.87;;
14688;SDS011;7432;48.728;9.154;2024-01-10T04:29:55;22.77;;;15.93;;
14688;SDS011;7432;48.728;9.154;2024-01-10T04:32:21;17.17;;;13.97;;
14688;SDS011;7432;48.728;9.154;2024-01-10T04:34:47;20.97;;;14.57;;
14688;SDS011;7432;48.728;9.154;2024-01-10T04:37:14;22.43;;;16.77;;
14688;SDS011;7432;48.728;9.154;2024-01-10T04:39:40;20.63;;;16.47;;
14688;SDS011;7432;48.728;9.154;2024-01-10T04:42:09;21.67;;;15.20;;
14688;SDS011;7432;48.728;9.154;2024-01-10T04:44:36;19.33;;;15.57;;
14688;SDS011;7432;48.728;9.154;2024-01-10T04:47:03;21.20;;;15.77;;
14688;SDS011;7432;48.728;9.154;2024-01-10T04:49:30;19.07;;;14.83;;
14688;SDS011;7432;48.728;9.154;2024-01-10T04:51:56;22.37;;;15.10;;
14688;SDS011;7432;48.728;9.154;2024-01-10T04:54:22;18.47;;;14.77;;
14688;SDS011;7432;48.728;9.154;2024-01-10T04:56:49;22.07;;;15.23;;
14688;SDS011;7432;48.728;9.154;2024-01-10T04:59:17;25.30;;;15.10;;
14688;SDS011;7432;48.728;9.154;2024-01-10T05:01:43;16.73;;;13.83;;
14688;SDS011;7432;48.728;9.154;2024-01-10T05:04:10;20.90;;;15.23;;
14688;SDS011;7432;48.728;9.154;2024-01-10T05:06:36;21.03;;;14.83;;
14688;SDS011;7432;48.728;9.154;2024-01-10T05:09:02;20.27;;;14.87;;
14688;SDS011;7432;48.728;9.154;2024-01-10T05:11:29;21.10;;;14.47;;
14688;SDS011;7432;48.728;9.154;2024-01-10T05:13:56;20.33;;;15.47;;
14688;SDS011;7432;48.728;9.154;2024-01-10T05:16:23;21.73;;;14.87;;
14688;SDS011;7432;48.728;9.154;2024-01-10T05:18:50;24.17;;;15.47;;
14688;SDS011;7432;48.728;9.154;2024-01-10T05:21:16;21.03;;;16.17;;
14688;SDS011;7432;48.728;9.154;2024-01-10T05:23:43;21.03;;;14.80;;
14688;SDS011;7432;48.728;9.154;2024-01-10T05:26:09;24.17;;;16.83;;
14688;SDS011;7432;48.728;9.154;2024-01-10T05:28:36;25.07;;;16.87;;
14688;SDS011;7432;48.728;9.154;2024-01-10T05:31:02;21.23;;;16.70;;
14688;SDS011;7432;48.728;9.154;2024-01-10T05:33:30;21.27;;;16.57;;
14688;SDS011;7432;48.728;9.154;2024-01-10T05:35:57;24.53;;;17.20;;
14688;SDS011;7432;48.728;9.154;2024-01-10T05:38:24;23.20;;;17.93;;
14688;SDS011;7432;48.728;9.154;2024-01-10T05:40:50;22.40;;;18.17;;
14688;SDS011;7432;48.728;9.154;2024-01-10T05:43:17;22.87;;;16.13;;
14688;SDS011;7432;48.728;9.154;2024-01-10T05:45:43;20.90;;;15.80;;
14688;SDS011;7432;48.728;9.154;2024-01-10T05:48:09;24.83;;;16.33;;
14688;SDS011;7432;48.728;9.154;2024-01-10T05:50:37;23.17;;;17.13;;
14688;SDS011;7432;48.728;9.154;2024-01-10T05:53:05;22.57;;;15.93;;
14688;SDS011;7432;48.728;9.154;2024-01-10T05:55:33;22.67;;;15.87;;
14688;SDS011;7432;48.728;9.154;2024-01-10T05:57:59;22.50;;;16.50;;
14688;SDS011;7432;48.728;9.154;2024-01-10T06:00:25;22.50;;;16.47;;
14688;SDS011;7432;48.728;9.154;2024-01-10T06:02:53;25.00;;;17.07;;
14688;SDS011;7432;48.728;9.154;2024-01-10T06:05:19;25.33;;;16.37;;
14688;SDS011;7432;48.728;9.154;2024-01-10T06:07:48;19.23;;;16.20;;
14688;SDS011;7432;48.728;9.154;2024-01-10T06:10:14;24.87;;;16.37;;
14688;SDS011;7432;48.728;9.154;2024-01-10T06:12:40;25.40;;;18.10;;
14688;SDS011;7432;48.728;9.154;2024-01-10T06:15:07;22.10;;;17.33;;
14688;SDS011;7432;48.728;9.154;2024-01-10T06:17:34;23.40;;;16.77;;
14688;SDS011;7432;48.728;9.154;2024-01-10T06:20:01;26.10;;;18.00;;
14688;SDS011;7432;48.728;9.154;2024-01-10T06:22:28;22.97;;;16.60;;
14688;SDS011;7432;48.728;9.154;2024-01-10T06:24:56;25.17;;;17.17;;
14688;SDS011;7432;48.728;9.154;2024-01-10T06:27:22;23.00;;;17.87;;
14688;SDS011;7432;48.728;9.154;2024-01-10T06:29:49;24.53;;;17.93;;
14688;SDS011;7432;48.728;9.154;2024-01-10T06:32:15;23.37;;;17.40;;
14688;SDS011;7432;48.728;9.154;2024-01-10T06:34:41;21.80;;;16.73;;
14688;SDS011;7432;48.728;9.154;2024-01-10T06:37:08;22.07;;;16.87;;
14688;SDS011;7432;48.728;9.154;2024-01-10T06:39:34;21.37;;;16.83;;
14688;SDS011;7432;48.728;9.154;2024-01-10T06:42:02;23.07;;;17.30;;
14688;SDS011;7432;48.728;9.154;2024-01-10T06:44:31;19.57;;;15.03;;
14688;SDS011;7432;48.728;9.154;2024-01-10T06:46:58;24.60;;;17.53;;
14688;SDS011;7432;48.728;9.154;2024-01-10T06:49:25;22.17;;;15.60;;
14688;SDS011;7432;48.728;9.154;2024-01-10T06:51:52;21.13;;;17.07;;
14688;SDS011;7432;48.728;9.154;2024-01-10T06:54:18;22.47;;;16.90;;
14688;SDS011;7432;48.728;9.154;2024-01-10T06:56:45;23.50;;;16.97;;
14688;SDS011;7432;48.728;9.154;2024-01-10T06:59:12;25.10;;;18.17;;
14688;SDS011;7432;48.728;9.154;2024-01-10T07:01:39;22.33;;;17.10;;
14688;SDS011;7432;48.728;9.154;2024-01-10T07:04:05;26.00;;;16.93;;
14688;SDS011;7432;48.728;9.154;2024-01-10T07:06:32;21.03;;;16.83;;
14688;SDS011;7432;48.728;9.154;2024-01-10T07:08:58;26.00;;;16.10;;
14688;SDS011;7432;48.728;9.154;2024-01-10T07:11:25;23.27;;;16.73;;
14688;SDS011;7432;48.728;9.154;2024-01-10T07:13:53;23.73;;;16.80;;
14688;SDS011;7432;48.728;9.154;2024-01-10T07:16:21;22.77;;;16.13;;
14688;SDS011;7432;48.728;9.154;2024-01-10T07:18:47;21.23;;;17.00;;
14688;SDS011;7432;48.728;9.154;2024-01-10T07:21:16;28.43;;;18.10;;
14688;SDS011;7432;48.728;9.154;2024-01-10T07:23:42;24.03;;;17.20;;
14688;SDS011;7432;48.728;9.154;2024-01-10T07:26:09;25.10;;;17.30;;
14688;SDS011;7432;48.728;9.154;2024-01-10T07:28:35;28.07;;;17.60;;
14688;SDS011;7432;48.728;9.154;2024-01-10T07:31:03;22.20;;;17.00;;
14688;SDS011;7432;48.728;9.154;2024-01-10T07:33:31;20.83;;;15.73;;
14688;SDS011;7432;48.728;9.154;2024-01-10T07:35:58;23.23;;;17.90;;
14688;SDS011;7432;48.728;9.154;2024-01-10T07:38:24;22.43;;;17.17;;
14688;SDS011;7432;48.728;9.154;2024-01-10T07:40:50;25.07;;;16.47;;
14688;SDS011;7432;48.728;9.154;2024-01-10T07:43:17;22.30;;;16.53;;
14688;SDS011;7432;48.728;9.154;2024-01-10T07:45:43;20.67;;;16.23;;
14688;SDS011;7432;48.728;9.154;2024-01-10T07:48:09;22.70;;;16.20;;
14688;SDS011;7432;48.728;9.154;2024-01-10T07:50:37;24.03;;;17.40;;
14688;SDS011;7432;48.728;9.154;2024-01-10T07:53:03;30.77;;;22.13;;
14688;SDS011;7432;48.728;9.154;2024-01-10T07:55:30;23.93;;;19.03;;
14688;SDS011;7432;48.728;9.154;2024-01-10T07:57:56;25.10;;;18.47;;
14688;SDS011;7432;48.728;9.154;2024-01-10T08:00:23;23.10;;;17.87;;
14688;SDS011;7432;48.728;9.154;2024-01-10T08:02:49;22.80;;;17.10;;
14688;SDS011;7432;48.728;9.154;2024-01-10T08:05:15;20.87;;;15.90;;
14688;SDS011;7432;48.728;9.154;2024-01-10T08:07:43;25.80;;;18.23;;
14688;SDS011;7432;48.728;9.154;2024-01-10T08:10:10;27.03;;;18.07;;
14688;SDS011;7432;48.728;9.154;2024-01-10T08:12:36;22.63;;;17.67;;
14688;SDS011;7432;48.728;9.154;2024-01-10T08:15:04;25.47;;;18.23;;
14688;SDS011;7432;48.728;9.154;2024-01-10T08:17:31;23.30;;;16.57;;
14688;SDS011;7432;48.728;9.154;2024-01-10T08:19:57;22.30;;;16.77;;
14688;SDS011;7432;48.728;9.154;2024-01-10T08:22:25;24.53;;;17.27;;
14688;SDS011;7432;48.728;9.154;2024-01-10T08:24:52;20.30;;;16.97;;
14688;SDS011;7432;48.728;9.154;2024-01-10T08:27:19;25.43;;;17.63;;
14688;SDS011;7432;48.728;9.154;2024-01-10T08:29:45;23.37;;;18.30;;
14688;SDS011;7432;48.728;9.154;2024-01-10T08:32:11;20.93;;;17.17;;
14688;SDS011;7432;48.728;9.154;2024-01-10T08:34:37;25.07;;;19.47;;
14688;SDS011;7432;48.728;9.154;2024-01-10T08:37:03;21.57;;;18.03;;
14688;SDS011;7432;48.728;9.154;2024-01-10T08:39:30;23.13;;;18.80;;
14688;SDS011;7432;48.728;9.154;2024-01-10T08:41:58;25.60;;;18.30;;
14688;SDS011;7432;48.728;9.154;2024-01-10T08:44:24;22.77;;;18.37;;
14688;SDS011;7432;48.728;9.154;2024-01-10T08:46:50;24.90;;;17.43;;
14688;SDS011;7432;48.728;9.154;2024-01-10T08:49:17;25.97;;;19.67;;
14688;SDS011;7432;48.728;9.154;2024-01-10T08:51:44;25.27;;;19.17;;
14688;SDS011;7432;48.728;9.154;2024-01-10T08:54:11;23.10;;;18.43;;
14688;SDS011;7432;48.728;9.154;2024-01-10T08:56:41;23.90;;;19.37;;
14688;SDS011;7432;48.728;9.154;2024-01-10T08:59:10;26.30;;;19.57;;
14688;SDS011;7432;48.728;9.154;2024-01-10T09:01:37;30.00;;;20.20;;
14688;SDS011;7432;48.728;9.154;2024-01-10T09:04:03;27.67;;;19.87;;
14688;SDS011;7432;48.728;9.154;2024-01-10T09:06:30;27.87;;;19.80;;
14688;SDS011;7432;48.728;9.154;2024-01-10T09:08:57;29.00;;;20.00;;
14688;SDS011;7432;48.728;9.154;2024-01-10T09:11:24;31.10;;;20.80;;
14688;SDS011;7432;48.728;9.154;2024-01-10T09:13:50;26.87;;;19.90;;
14688;SDS011;7432;48.728;9.154;2024-01-10T09:16:18;29.67;;;20.23;;
14688;SDS011;7432;48.728;9.154;2024-01-10T09:18:44;28.97;;;20.20;;
14688;SDS011;7432;48.728;9.154;2024-01-10T09:21:11;24.97;;;19.77;;
14688;SDS011;7432;48.728;9.154;2024-01-10T09:23:37;29.10;;;20.37;;
14688;SDS011;7432;48.728;9.154;2024-01-10T09:26:04;25.03;;;19.40;;
14688;SDS011;7432;48.728;9.154;2024-01-10T09:28:30;24.00;;;18.67;;
14688;SDS011;7432;48.728;9.154;2024-01-10T09:30:56;25.43;;;18.37;;
14688;SDS011;7432;48.728;9.154;2024-01-10T09:33:24;27.10;;;19.60;;
14688;SDS011;7432;48.728;9.154;2024-01-10T09:35:50;28.17;;;20.90;;
14688;SDS011;7432;48.728;9.154;2024-01-10T09:38:17;24.07;;;19.13;;
14688;SDS011;7432;48.728;9.154;2024-01-10T09:40:43;26.43;;;19.43;;
14688;SDS011;7432;48.728;9.154;2024-01-10T09:43:10;29.13;;;21.57;;
14688;SDS011;7432;48.728;9.154;2024-01-10T09:45:37;28.90;;;19.60;;
14688;SDS011;7432;48.728;9.154;2024-01-10T09:48:11;28.33;;;20.43;;
14688;SDS011;7432;48.728;9.154;2024-01-10T09:50:41;28.37;;;20.97;;
14688;SDS011;7432;48.728;9.154;2024-01-10T09:53:07;27.60;;;19.90;;
14688;SDS011;7432;48.728;9.154;2024-01-10T09:55:42;25.73;;;18.73;;
14688;SDS011;7432;48.728;9.154;2024-01-10T09:58:10;26.80;;;20.17;;
14688;SDS011;7432;48.728;9.154;2024-01-10T10:00:37;28.30;;;19.50;;
14688;SDS011;7432;48.728;9.154;2024-01-10T10:03:06;28.67;;;20.37;;
14688;SDS011;7432;48.728;9.154;2024-01-10T10:05:36;27.23;;;21.37;;
14688;SDS011;7432;48.728;9.154;2024-01-10T10:08:06;29.00;;;21.03;;
14688;SDS011;7432;48.728;9.154;2024-01-10T10:10:33;31.73;;;21.60;;
14688;SDS011;7432;48.728;9.154;2024-01-10T10:12:59;28.50;;;21.30;;
14688;SDS011;7432;48.728;9.154;2024-01-10T10:15:25;31.80;;;20.33;;
14688;SDS011;7432;48.728;9.154;2024-01-10T10:17:52;28.10;;;20.27;;
14688;SDS011;7432;48.728;9.154;2024-01-10T10:20:20;37.00;;;22.27;;
14688;SDS011;7432;48.728;9.154;2024-01-10T10:22:58;30.20;;;20.70;;
14688;SDS011;7432;48.728;9.154;2024-01-10T10:25:31;31.37;;;21.73;;
14688;SDS011;7432;48.728;9.154;2024-01-10T10:27:59;30.03;;;21.07;;
14688;SDS011;7432;48.728;9.154;2024-01-10T10:30:26;29.37;;;21.63;;
14688;SDS011;7432;48.728;9.154;2024-01-10T10:32:52;30.47;;;21.97;;
14688;SDS011;7432;48.728;9.154;2024-01-10T10:35:20;30.43;;;21.33;;
14688;SDS011;7432;48.728;9.154;2024-01-10T10:37:47;29.13;;;21.17;;
14688;SDS011;7432;48.728;9.154;2024-01-10T10:40:14;30.20;;;20.80;;
14688;SDS011;7432;48.728;9.154;2024-01-10T10:42:43;28.67;;;20.43;;
14688;SDS011;7432;48.728;9.154;2024-01-10T10:45:12;31.43;;;21.93;;
14688;SDS011;7432;48.728;9.154;2024-01-10T10:47:43;27.07;;;19.80;;
14688;SDS011;7432;48.728;9.154;2024-01-10T10:50:12;29.73;;;21.57;;
14688;SDS011;7432;48.728;9.154;2024-01-10T10:52:44;31.63;;;22.20;;
14688;SDS011;7432;48.728;9.154;2024-01-10T10:55:13;28.77;;;21.60;;
14688;SDS011;7432;48.728;9.154;2024-01-10T10:57:40;31.73;;;21.57;;
14688;SDS011;7432;48.728;9.154;2024-01-10T11:00:10;30.33;;;21.73;;
14688;SDS011;7432;48.728;9.154;2024-01-10T11:02:40;26.13;;;19.47;;
14688;SDS011;7432;48.728;9.154;2024-01-10T11:05:07;31.00;;;22.27;;
14688;SDS011;7432;48.728;9.154;2024-01-10T11:07:34;33.10;;;22.77;;
14688;SDS011;7432;48.728;9.154;2024-01-10T11:10:01;34.27;;;22.50;;
14688;SDS011;7432;48.728;9.154;2024-01-10T11:12:34;30.87;;;22.83;;
14688;SDS011;7432;48.728;9.154;2024-01-10T11:15:21;29.03;;;20.73;;
14688;SDS011;7432;48.728;9.154;2024-01-10T11:18:16;33.67;;;22.27;;
14688;SDS011;7432;48.728;9.154;2024-01-10T11:20:57;32.13;;;22.07;;
14688;SDS011;7432;48.728;9.154;2024-01-10T11:23:39;33.15;;;24.10;;
14688;SDS011;7432;48.728;9.154;2024-01-10T11:26:09;28.40;;;21.60;;
14688;SDS011;7432;48.728;9.154;2024-01-10T11:28:39;30.17;;;21.03;;
14688;SDS011;7432;48.728;9.154;2024-01-10T11:31:06;29.37;;;20.83;;
14688;SDS011;7432;48.728;9.154;2024-01-10T11:33:34;31.43;;;22.17;;
14688;SDS011;7432;48.728;9.154;2024-01-10T11:36:13;31.30;;;21.50;;
14688;SDS011;7432;48.728;9.154;2024-01-10T11:38:41;30.20;;;22.23;;
14688;SDS011;7432;48.728;9.154;2024-01-10T11:41:10;32.23;;;21.43;;
14688;SDS011;7432;48.728;9.154;2024-01-10T11:43:37;32.13;;;23.83;;
14688;SDS011;7432;48.728;9.154;2024-01-10T11:46:05;29.40;;;22.37;;
14688;SDS011;7432;48.728;9.154;2024-01-10T11:48:32;36.07;;;24.97;;
14688;SDS011;7432;48.728;9.154;2024-01-10T11:50:58;35.77;;;23.97;;
14688;SDS011;7432;48.728;9.154;2024-01-10T11:53:38;33.17;;;23.10;;
14688;SDS011;7432;48.728;9.154;2024-01-10T11:56:08;38.40;;;24.97;;
14688;SDS011;7432;48.728;9.154;2024-01-10T12:01:22;33.93;;;23.27;;
14688;SDS011;7432;48.728;9.154;2024-01-10T12:03:50;33.23;;;24.17;;
14688;SDS011;7432;48.728;9.154;2024-01-10T12:06:19;31.23;;;23.50;;
14688;SDS011;7432;48.728;9.154;2024-01-10T12:08:47;34.57;;;23.77;;
14688;SDS011;7432;48.728;9.154;2024-01-10T12:11:14;37.87;;;25.97;;
14688;SDS011;7432;48.728;9.154;2024-01-10T12:13:40;33.57;;;23.90;;
14688;SDS011;7432;48.728;9.154;2024-01-10T12:16:07;33.73;;;23.33;;
14688;SDS011;7432;48.728;9.154;2024-01-10T12:18:34;35.67;;;25.50;;
14688;SDS011;7432;48.728;9.154;2024-01-10T12:21:01;35.20;;;24.70;;
14688;SDS011;7432;48.728;9.154;2024-01-10T12:23:27;33.03;;;24.57;;
14688;SDS011;7432;48.728;9.154;2024-01-10T12:25:56;33.83;;;23.30;;
14688;SDS011;7432;48.728;9.154;2024-01-10T12:28:23;34.03;;;23.10;;
14688;SDS011;7432;48.728;9.154;2024-01-10T12:30:49;36.13;;;24.27;;
14688;SDS011;7432;48.728;9.154;2024-01-10T12:33:16;33.23;;;23.10;;
14688;SDS011;7432;48.728;9.154;2024-01-10T12:35:44;34.87;;;24.37;;
14688;SDS011;7432;48.728;9.154;2024-01-10T12:38:10;33.50;;;24.27;;
14688;SDS011;7432;48.728;9.154;2024-01-10T12:40:37;30.23;;;22.10;;
14688;SDS011;7432;48.728;9.154;2024-01-10T12:43:03;33.30;;;22.87;;
14688;SDS011;7432;48.728;9.154;2024-01-10T12:45:30;34.77;;;24.30;;
14688;SDS011;7432;48.728;9.154;2024-01-10T12:47:57;35.43;;;25.07;;
14688;SDS011;7432;48.728;9.154;2024-01-10T12:50:24;33.83;;;23.73;;
14688;SDS011;7432;48.728;9.154;2024-01-10T12:52:52;32.63;;;24.50;;
14688;SDS011;7432;48.728;9.154;2024-01-10T12:55:18;33.03;;;23.00;;
14688;SDS011;7432;48.728;9.154;2024-01-10T12:57:45;34.30;;;25.30;;
14688;SDS011;7432;48.728;9.154;2024-01-10T13:00:11;33.20;;;23.30;;
14688;SDS011;7432;48.728;9.154;2024-01-10T13:02:39;31.87;;;24.00;;
14688;SDS011;7432;48.728;9.154;2024-01-10T13:05:06;32.60;;;22.63;;
14688;SDS011;7432;48.728;9.154;2024-01-10T13:07:34;30.77;;;22.47;;
14688;SDS011;7432;48.728;9.154;2024-01-10T13:10:02;33.33;;;24.07;;
14688;SDS011;7432;48.728;9.154;2024-01-10T13:12:28;31.53;;;22.83;;
14688;SDS011;7432;48.728;9.154;2024-01-10T13:14:55;32.53;;;24.20;;
14688;SDS011;7432;48.728;9.154;2024-01-10T13:17:21;34.50;;;23.93;;
14688;SDS011;7432;48.728;9.154;2024-01-10T13:19:48;33.37;;;24.73;;
14688;SDS011;7432;48.728;9.154;2024-01-10T13:22:14;30.47;;;23.43;;
14688;SDS011;7432;48.728;9.154;2024-01-10T13:24:44;33.63;;;23.40;;
14688;SDS011;7432;48.728;9.154;2024-01-10T13:27:12;33.03;;;23.93;;
14688;SDS011;7432;48.728;9.154;2024-01-10T13:29:38;32.73;;;23.03;;
14688;SDS011;7432;48.728;9.154;2024-01-10T13:32:05;32.37;;;23.90;;
14688;SDS011;7432;48.728;9.154;2024-01-10T13:34:31;32.40;;;24.43;;
14688;SDS011;7432;48.728;9.154;2024-01-10T13:36:58;35.17;;;23.97;;
14688;SDS011;7432;48.728;9.154;2024-01-10T13:39:25;33.40;;;24.10;;
14688;SDS011;7432;48.728;9.154;2024-01-10T13:41:51;32.30;;;24.17;;
14688;SDS011;7432;48.728;9.154;2024-01-10T13:44:19;31.07;;;22.77;;
14688;SDS011;7432;48.728;9.154;2024-01-10T13:46:45;29.73;;;22.77;;
14688;SDS011;7432;48.728;9.154;2024-01-10T13:49:14;27.00;;;21.60;;
14688;SDS011;7432;48.728;9.154;2024-01-10T13:51:41;29.97;;;23.23;;
14688;SDS011;7432;48.728;9.154;2024-01-10T13:54:08;31.17;;;22.30;;
14688;SDS011;7432;48.728;9.154;2024-01-10T13:56:34;28.47;;;20.97;;
14688;SDS011;7432;48.728;9.154;2024-01-10T13:59:00;27.50;;;21.57;;
14688;SDS011;7432;48.728;9.154;2024-01-10T14:01:28;26.87;;;19.80;;
14688;SDS011;7432;48.728;9.154;2024-01-10T14:03:55;25.17;;;19.30;;
14688;SDS011;7432;48.728;9.154;2024-01-10T14:06:21;23.60;;;18.97;;
14688;SDS011;7432;48.728;9.154;2024-01-10T14:08:47;24.77;;;20.27;;
14688;SDS011;7432;48.728;9.154;2024-01-10T14:11:15;26.57;;;21.37;;
14688;SDS011;7432;48.728;9.154;2024-01-10T14:13:41;27.83;;;21.80;;
14688;SDS011;7432;48.728;9.154;2024-01-10T14:16:07;25.27;;;19.13;;
14688;SDS011;7432;48.728;9.154;2024-01-10T14:18:37;29.00;;;20.77;;
14688;SDS011;7432;48.728;9.154;2024-01-10T14:21:03;25.93;;;20.87;;
14688;SDS011;7432;48.728;9.154;2024-01-10T14:23:30;28.33;;;21.37;;
14688;SDS011;7432;48.728;9.154;2024-01-10T14:25:56;28.60;;;22.07;;
14688;SDS011;7432;48.728;9.154;2024-01-10T14:28:22;29.13;;;21.83;;
14688;SDS011;7432;48.728;9.154;2024-01-10T14:30:49;24.83;;;19.17;;
14688;SDS011;7432;48.728;9.154;2024-01-10T14:33:15;28.33;;;21.37;;
14688;SDS011;7432;48.728;9.154;2024-01-10T14:35:43;28.40;;;21.70;;